Time;durP1;ratioP1;P1;durP2;ratioP2;P2;SDS_P1;SDS_P2;PMS_P1;PMS_P2;Temp;Humidity;BMP_temperature;BMP_pressure;BME280_temperature;BME280_humidity;BME280_pressure;Samples;Min_cycle;Max_cycle;Signal;HPM_P1;HPM_P2
2023/12/17 00:01:47;;;;;;;8.73;7.83;;;;;;;20.42;48.40;99744.00;5019769;28;20281;-30
2023/12/17 00:04:14;;;;;;;9.20;8.30;;;;;;;20.44;48.16;99745.00;5025267;28;20237;-27
2023/12/17 00:06:42;;;;;;;8.30;7.43;;;;;;;20.47;48.28;99739.22;5025670;28;20699;-31
2023/12/17 00:09:08;;;;;;;8.70;7.80;;;;;;;20.50;47.94;99747.09;5025168;28;20209;-33
2023/12/17 00:11:40;;;;;;;8.43;7.50;;;;;;;20.51;48.09;99747.19;5029249;28;20201;-28
2023/12/17 00:14:06;;;;;;;8.73;7.87;;;;;;;20.53;47.81;99750.75;5027411;28;20293;-29
2023/12/17 00:16:33;;;;;;;8.40;7.60;;;;;;;20.53;48.07;99740.53;5027702;28;20528;-31
2023/12/17 00:18:59;;;;;;;9.83;8.03;;;;;;;20.54;47.90;99739.72;5029782;28;20201;-31
2023/12/17 00:21:26;;;;;;;8.97;8.07;;;;;;;20.53;47.92;99737.97;5028493;28;20218;-28
2023/12/17 00:23:53;;;;;;;7.83;7.03;;;;;;;20.56;47.94;99738.19;5030756;28;20201;-28
2023/12/17 00:26:19;;;;;;;8.23;7.43;;;;;;;20.50;47.89;99713.88;5025139;28;20592;-28
2023/12/17 00:28:46;;;;;;;8.93;8.03;;;;;;;20.58;47.75;99730.63;5030936;28;20716;-28
2023/12/17 00:31:12;;;;;;;8.17;7.37;;;;;;;20.51;47.89;99738.63;5023786;28;20202;-30
2023/12/17 00:33:39;;;;;;;7.97;7.17;;;;;;;20.47;47.83;99740.09;5023508;28;20229;-28
2023/12/17 00:36:06;;;;;;;8.67;7.43;;;;;;;20.45;48.03;99743.31;5026915;28;20233;-37
2023/12/17 00:38:33;;;;;;;7.73;6.97;;;;;;;20.43;48.08;99752.56;5025413;28;20308;-29
2023/12/17 00:41:00;;;;;;;8.23;7.43;;;;;;;20.41;47.89;99749.91;5026983;28;20264;-30
2023/12/17 00:43:26;;;;;;;8.33;7.53;;;;;;;20.41;47.99;99751.56;5025356;28;20686;-28
2023/12/17 00:45:53;;;;;;;8.40;7.60;;;;;;;20.38;48.03;99749.69;5024504;28;20306;-29
2023/12/17 00:48:19;;;;;;;8.30;7.50;;;;;;;20.38;47.75;99756.47;5031981;28;20577;-30
2023/12/17 00:50:46;;;;;;;8.43;7.63;;;;;;;20.38;47.77;99752.25;5032356;28;20201;-31
2023/12/17 00:53:13;;;;;;;8.60;7.70;;;;;;;20.40;47.85;99753.22;5033798;28;20667;-29
2023/12/17 00:55:39;;;;;;;8.70;7.80;;;;;;;20.41;47.81;99756.66;5030263;28;20724;-28
2023/12/17 00:58:06;;;;;;;7.90;7.20;;;;;;;20.43;47.78;99750.88;5023856;28;20232;-28
2023/12/17 01:00:33;;;;;;;8.20;7.33;;;;;;;20.45;47.79;99740.75;5031310;28;20225;-29
2023/12/17 01:03:08;;;;;;;8.40;7.50;;;;;;;20.48;47.86;99746.06;5029075;28;20216;-29
2023/12/17 01:05:36;;;;;;;7.47;6.77;;;;;;;20.48;47.69;99734.19;5025176;28;20214;-29
2023/12/17 01:08:02;;;;;;;8.37;7.57;;;;;;;20.51;47.68;99738.63;5032679;28;20221;-29
2023/12/17 01:10:29;;;;;;;7.90;7.10;;;;;;;20.41;47.71;99724.38;5026131;28;20704;-30
2023/12/17 01:12:56;;;;;;;8.00;7.20;;;;;;;20.53;47.71;99747.28;5029756;28;20213;-31
2023/12/17 01:15:22;;;;;;;8.00;7.20;;;;;;;20.54;47.71;99752.50;5029300;28;20202;-28
2023/12/17 01:17:49;;;;;;;8.47;6.70;;;;;;;20.57;47.55;99762.06;5027480;28;20202;-28
2023/12/17 01:20:16;;;;;;;7.97;7.17;;;;;;;20.58;47.42;99776.59;5031700;28;20629;-29
2023/12/17 01:22:42;;;;;;;7.83;7.00;;;;;;;20.53;47.39;99772.84;5020112;28;20233;-28
2023/12/17 01:25:09;;;;;;;6.93;6.33;;;;;;;20.48;47.86;99779.28;5029408;28;20240;-30
2023/12/17 01:27:35;;;;;;;7.93;7.23;;;;;;;20.44;47.75;99796.09;5026898;28;20657;-29
2023/12/17 01:30:02;;;;;;;7.50;6.80;;;;;;;20.42;47.53;99805.31;5025241;28;20204;-28
2023/12/17 01:32:29;;;;;;;8.70;7.30;;;;;;;20.41;47.48;99806.09;5021920;28;20573;-29
2023/12/17 01:34:56;;;;;;;7.57;6.87;;;;;;;20.41;47.54;99797.53;5029471;28;20585;-30
2023/12/17 01:37:23;;;;;;;7.57;6.87;;;;;;;20.40;47.50;99806.00;5032448;28;20249;-29
2023/12/17 01:39:50;;;;;;;6.97;6.27;;;;;;;20.38;47.54;99794.78;5031871;28;20229;-30
2023/12/17 01:42:16;;;;;;;7.90;7.17;;;;;;;20.39;47.36;99801.63;5021825;28;20205;-29
2023/12/17 01:44:43;;;;;;;7.40;6.60;;;;;;;20.39;47.44;99799.97;5033111;28;20194;-28
2023/12/17 01:47:09;;;;;;;7.63;6.93;;;;;;;20.41;47.41;99789.88;5029591;28;20711;-29
2023/12/17 01:49:36;;;;;;;7.10;6.43;;;;;;;20.43;47.52;99789.19;5030370;28;20696;-30
2023/12/17 01:52:03;;;;;;;7.40;6.70;;;;;;;20.45;47.42;99791.84;5021552;28;20208;-28
2023/12/17 01:54:29;;;;;;;6.90;6.30;;;;;;;20.48;47.54;99790.41;5009405;28;20206;-28
2023/12/17 01:56:56;;;;;;;7.67;6.97;;;;;;;20.48;47.42;99789.50;5030151;28;20287;-29
2023/12/17 01:59:23;;;;;;;7.40;6.70;;;;;;;20.50;47.21;99782.84;5028588;28;20653;-30
2023/12/17 02:01:49;;;;;;;7.43;6.40;;;;;;;20.49;47.49;99779.38;5028768;28;20248;-28
2023/12/17 02:04:16;;;;;;;7.20;6.50;;;;;;;20.42;47.19;99761.88;5011795;28;20249;-30
2023/12/17 02:06:42;;;;;;;7.20;6.50;;;;;;;20.53;47.18;99771.19;5014251;28;20218;-29
2023/12/17 02:09:09;;;;;;;7.10;6.43;;;;;;;20.55;47.22;99773.84;5020146;28;20221;-29
2023/12/17 02:11:36;;;;;;;6.97;6.27;;;;;;;20.51;47.34;99756.50;5005095;28;20334;-28
2023/12/17 02:14:02;;;;;;;7.20;6.50;;;;;;;20.56;46.66;99765.38;5020903;28;20292;-29
2023/12/17 02:16:29;;;;;;;6.57;5.93;;;;;;;20.49;47.34;99765.75;5027086;28;20770;-29
2023/12/17 02:18:58;;;;;;;7.53;6.83;;;;;;;20.45;47.13;99769.75;5027395;28;20299;-28
2023/12/17 02:21:25;;;;;;;7.27;6.20;;;;;;;20.42;47.06;99755.88;5029607;28;20217;-29
2023/12/17 02:23:53;;;;;;;6.90;6.30;;;;;;;20.41;47.44;99757.56;5030053;28;20498;-29
2023/12/17 02:26:19;;;;;;;6.77;6.10;;;;;;;20.39;47.20;99755.66;5016710;28;20222;-29
2023/12/17 02:28:47;;;;;;;7.80;6.80;;;;;;;20.38;47.24;99751.34;5027257;28;20207;-29
2023/12/17 02:31:13;;;;;;;6.40;5.80;;;;;;;20.37;47.13;99753.00;5022929;28;20297;-28
2023/12/17 02:33:40;;;;;;;6.60;6.00;;;;;;;20.36;47.27;99747.78;5024203;28;20216;-29
2023/12/17 02:36:07;;;;;;;7.47;6.77;;;;;;;20.36;47.08;99758.91;5024738;28;20786;-29
2023/12/17 02:38:34;;;;;;;6.77;6.17;;;;;;;20.38;47.31;99767.56;5030252;28;20480;-29
2023/12/17 02:41:00;;;;;;;8.70;6.87;;;;;;;20.40;47.16;99766.00;5029416;28;20226;-29
2023/12/17 02:43:27;;;;;;;7.43;6.73;;;;;;;20.41;47.44;99762.69;5026567;28;20194;-29
2023/12/17 02:45:53;;;;;;;7.40;6.30;;;;;;;20.43;47.11;99765.34;5021721;28;20275;-28
2023/12/17 02:48:20;;;;;;;6.60;6.00;;;;;;;20.44;47.04;99770.53;5029717;28;20255;-29
2023/12/17 02:50:47;;;;;;;6.90;6.30;;;;;;;20.43;47.02;99763.63;5018767;28;20277;-28
2023/12/17 02:53:13;;;;;;;6.80;6.20;;;;;;;20.47;46.97;99764.75;5027585;28;20598;-28
2023/12/17 02:55:40;;;;;;;7.03;6.33;;;;;;;20.49;47.08;99761.50;5029008;28;20300;-29
2023/12/17 02:58:07;;;;;;;6.97;6.30;;;;;;;20.51;46.98;99769.28;5021157;28;20233;-29
2023/12/17 03:00:33;;;;;;;6.77;6.07;;;;;;;20.52;46.94;99758.31;5024828;28;20760;-29
2023/12/17 03:03:00;;;;;;;6.63;6.10;;;;;;;20.53;46.88;99753.28;5027837;28;20201;-28
2023/12/17 03:05:26;;;;;;;6.40;5.80;;;;;;;20.53;46.86;99752.41;5025535;28;20587;-29
2023/12/17 03:07:53;;;;;;;6.37;5.77;;;;;;;20.48;46.99;99756.28;5031060;28;20729;-29
2023/12/17 03:10:20;;;;;;;7.20;6.50;;;;;;;20.43;46.98;99750.00;5022625;28;20194;-28
2023/12/17 03:12:46;;;;;;;6.60;6.00;;;;;;;20.39;47.08;99748.00;5030743;28;20688;-30
2023/12/17 03:15:13;;;;;;;6.10;5.60;;;;;;;20.39;47.03;99748.91;5028955;28;20587;-29
2023/12/17 03:17:39;;;;;;;6.57;5.97;;;;;;;20.38;46.99;99754.81;5027832;28;20703;-29
2023/12/17 03:20:07;;;;;;;6.70;6.10;;;;;;;20.36;47.02;99758.91;5025459;28;20660;-30
2023/12/17 03:22:33;;;;;;;6.80;6.20;;;;;;;20.36;46.93;99752.91;5028632;28;20292;-29
2023/12/17 03:25:01;;;;;;;6.10;5.60;;;;;;;20.35;46.95;99735.81;5020992;28;20256;-30
2023/12/17 03:27:28;;;;;;;6.30;5.67;;;;;;;20.32;46.55;99733.94;5024181;28;20716;-29
2023/12/17 03:29:54;;;;;;;6.90;6.30;;;;;;;20.35;46.84;99735.81;5030548;28;20236;-30
2023/12/17 03:32:21;;;;;;;6.50;5.90;;;;;;;20.38;47.10;99736.03;5028580;28;20193;-28
2023/12/17 03:34:48;;;;;;;6.60;6.00;;;;;;;20.40;47.31;99737.03;5024379;28;20552;-28
2023/12/17 03:37:14;;;;;;;7.33;6.63;;;;;;;20.41;46.90;99733.69;5024396;28;20225;-29
2023/12/17 03:39:41;;;;;;;6.67;5.93;;;;;;;20.42;46.70;99736.34;5023768;28;20202;-30
2023/12/17 03:42:07;;;;;;;6.40;5.80;;;;;;;20.43;46.89;99730.44;5030590;28;20283;-29
2023/12/17 03:44:34;;;;;;;7.20;6.50;;;;;;;20.45;46.76;99720.31;5024307;28;20204;-30
2023/12/17 03:47:01;;;;;;;6.37;5.80;;;;;;;20.47;46.90;99714.56;5025989;28;20237;-30
2023/12/17 03:49:27;;;;;;;6.40;5.80;;;;;;;20.49;46.63;99714.66;5018007;28;20234;-29
2023/12/17 03:51:54;;;;;;;6.00;5.50;;;;;;;20.50;46.67;99712.22;5026462;28;20202;-28
2023/12/17 03:54:21;;;;;;;6.40;5.80;;;;;;;20.52;46.58;99715.72;5026180;28;20248;-30
2023/12/17 03:56:47;;;;;;;6.13;5.53;;;;;;;20.52;46.47;99708.06;5026162;28;20218;-29
2023/12/17 03:59:15;;;;;;;6.80;6.20;;;;;;;20.49;46.66;99695.09;5024813;28;20206;-28
2023/12/17 04:01:45;;;;;;;6.63;6.03;;;;;;;20.43;46.93;99689.56;5024641;28;20308;-30
2023/12/17 04:04:13;;;;;;;6.30;5.70;;;;;;;20.40;46.83;99680.84;5021913;28;20206;-29
2023/12/17 04:06:42;;;;;;;6.60;6.00;;;;;;;20.39;46.69;99685.03;5023094;28;20218;-29
2023/12/17 04:09:09;;;;;;;5.73;5.13;;;;;;;20.37;46.74;99680.63;5027049;28;20631;-29
2023/12/17 04:11:36;;;;;;;6.63;6.03;;;;;;;20.37;46.77;99685.75;5015694;28;20285;-29
2023/12/17 04:14:02;;;;;;;5.97;5.40;;;;;;;20.36;46.66;99682.28;5031299;28;20209;-30
2023/12/17 04:16:29;;;;;;;6.70;5.73;;;;;;;20.36;46.86;99671.16;5029353;28;20288;-29
2023/12/17 04:18:55;;;;;;;5.87;5.37;;;;;;;20.36;46.58;99674.63;5031935;28;20201;-29
2023/12/17 04:21:24;;;;;;;6.10;5.57;;;;;;;20.35;46.52;99670.31;5020198;28;20222;-29
2023/12/17 04:23:51;;;;;;;6.30;5.80;;;;;;;20.34;46.58;99665.97;5032194;28;20280;-29
2023/12/17 04:26:18;;;;;;;6.10;5.53;;;;;;;20.38;46.49;99667.97;5027078;28;20229;-29
2023/12/17 04:28:44;;;;;;;6.40;5.90;;;;;;;20.42;46.53;99674.13;5029636;28;20194;-29
2023/12/17 04:31:11;;;;;;;6.07;5.57;;;;;;;20.43;46.60;99681.03;5033387;28;20675;-30
2023/12/17 04:33:38;;;;;;;5.90;5.30;;;;;;;20.44;46.50;99678.59;5031626;28;20301;-29
2023/12/17 04:36:05;;;;;;;6.00;5.50;;;;;;;20.44;46.33;99686.25;5019660;28;20605;-29
2023/12/17 04:38:31;;;;;;;6.30;5.70;;;;;;;20.43;46.26;99679.34;5032864;28;20249;-28
2023/12/17 04:40:58;;;;;;;6.10;5.50;;;;;;;20.50;46.42;99684.13;5015963;28;20742;-29
2023/12/17 04:43:26;;;;;;;5.63;5.13;;;;;;;20.50;46.42;99683.22;5031095;28;20754;-28
2023/12/17 04:45:52;;;;;;;6.00;5.50;;;;;;;20.53;46.42;99693.63;5026789;28;20229;-30
2023/12/17 04:48:19;;;;;;;6.47;5.93;;;;;;;20.54;46.23;99691.19;5023036;28;20225;-30
2023/12/17 04:50:46;;;;;;;6.30;5.70;;;;;;;20.53;46.30;99688.53;5031053;28;20236;-29
2023/12/17 04:53:12;;;;;;;5.67;5.17;;;;;;;20.46;46.41;99689.78;5033173;28;20296;-29
2023/12/17 04:55:39;;;;;;;5.77;5.27;;;;;;;20.42;46.55;99690.38;5029292;28;20241;-28
2023/12/17 04:58:05;;;;;;;5.73;5.23;;;;;;;20.40;46.42;99688.50;5030042;28;20643;-29
2023/12/17 05:00:32;;;;;;;5.77;5.27;;;;;;;20.38;46.41;99690.06;5021147;28;20197;-29
2023/12/17 05:02:59;;;;;;;5.67;5.17;;;;;;;20.37;46.49;99696.81;5021306;28;20195;-29
2023/12/17 05:05:26;;;;;;;6.03;5.53;;;;;;;20.36;46.49;99696.72;5024624;28;20204;-29
2023/12/17 05:07:53;;;;;;;6.27;5.67;;;;;;;20.35;46.55;99705.16;5032833;28;20213;-28
2023/12/17 05:10:19;;;;;;;5.63;5.13;;;;;;;20.35;46.63;99707.72;5029471;28;20199;-30
2023/12/17 05:12:46;;;;;;;6.43;5.83;;;;;;;20.35;46.17;99707.72;5030239;28;20194;-29
2023/12/17 05:15:12;;;;;;;5.77;5.27;;;;;;;20.36;46.49;99706.94;5020487;28;20205;-29
2023/12/17 05:17:39;;;;;;;5.73;5.23;;;;;;;20.38;46.32;99707.94;5023042;28;20241;-28
2023/12/17 05:20:09;;;;;;;6.17;5.60;;;;;;;20.41;46.40;99706.47;5013933;28;20244;-29
2023/12/17 05:22:35;;;;;;;5.53;5.03;;;;;;;20.41;46.33;99711.59;5032226;28;20249;-29
2023/12/17 05:25:02;;;;;;;4.97;4.57;;;;;;;20.43;46.32;99706.59;5017618;28;20198;-30
2023/12/17 05:27:28;;;;;;;5.40;4.97;;;;;;;20.44;46.41;99708.34;5021483;28;20256;-29
2023/12/17 05:29:55;;;;;;;5.37;4.87;;;;;;;20.46;46.46;99715.31;5031112;28;20206;-28
2023/12/17 05:32:22;;;;;;;5.27;4.87;;;;;;;20.47;46.68;99701.78;5024255;28;20675;-29
2023/12/17 05:34:49;;;;;;;5.50;5.00;;;;;;;20.50;46.34;99701.09;5030588;28;20579;-29
2023/12/17 05:37:15;;;;;;;5.50;5.00;;;;;;;20.50;46.22;99702.00;5025865;28;20225;-30
2023/12/17 05:39:42;;;;;;;5.60;5.10;;;;;;;20.52;46.21;99707.22;5030829;28;20282;-29
2023/12/17 05:42:08;;;;;;;5.30;4.90;;;;;;;20.52;46.09;99709.75;5032105;28;20614;-30
2023/12/17 05:44:35;;;;;;;5.70;5.20;;;;;;;20.46;46.16;99712.75;5032350;28;20208;-30
2023/12/17 05:47:02;;;;;;;5.23;4.73;;;;;;;20.41;46.35;99714.16;5021716;28;20245;-28
2023/12/17 05:49:28;;;;;;;5.70;5.20;;;;;;;20.40;46.39;99725.13;5032867;28;20743;-29
2023/12/17 05:51:55;;;;;;;5.07;4.67;;;;;;;20.38;46.25;99729.25;5031554;28;20217;-27
2023/12/17 05:54:22;;;;;;;4.80;4.40;;;;;;;20.35;46.23;99729.06;5030620;28;20198;-30
2023/12/17 05:56:48;;;;;;;5.00;4.60;;;;;;;20.33;46.32;99728.03;5028645;28;20569;-29
2023/12/17 05:59:15;;;;;;;4.90;4.50;;;;;;;20.35;46.15;99729.06;5026861;28;20216;-29
2023/12/17 06:01:41;;;;;;;5.50;5.00;;;;;;;20.34;46.56;99714.47;5026592;28;20752;-30
2023/12/17 06:04:08;;;;;;;5.60;5.10;;;;;;;20.35;45.72;99712.81;5032676;28;20236;-28
2023/12/17 06:06:34;;;;;;;5.20;4.80;;;;;;;20.34;46.16;99708.50;5031714;28;20222;-30
2023/12/17 06:09:02;;;;;;;5.20;4.80;;;;;;;20.36;46.29;99707.81;5029338;28;20255;-28
2023/12/17 06:11:28;;;;;;;5.70;5.20;;;;;;;20.38;46.20;99706.28;5023487;28;20195;-29
2023/12/17 06:13:55;;;;;;;5.57;5.07;;;;;;;20.41;45.46;99696.25;5025679;28;20236;-30
2023/12/17 06:16:21;;;;;;;4.80;4.40;;;;;;;20.07;46.12;99633.41;5030407;28;20225;-28
2023/12/17 06:18:49;;;;;;;5.20;4.80;;;;;;;20.42;46.01;99692.91;5026873;28;20239;-30
2023/12/17 06:21:22;;;;;;;5.17;4.77;;;;;;;20.45;46.01;99694.78;5021757;28;20222;-28
2023/12/17 06:23:50;;;;;;;5.73;5.23;;;;;;;20.48;46.03;99693.34;5027036;28;20208;-30
2023/12/17 06:26:19;;;;;;;5.30;4.80;;;;;;;20.47;46.05;99699.22;5029686;28;20221;-29
2023/12/17 06:28:46;;;;;;;5.40;4.93;;;;;;;20.51;46.08;99697.75;5024357;28;20194;-29
2023/12/17 06:31:12;;;;;;;5.33;4.90;;;;;;;20.52;45.81;99697.84;5032504;28;20193;-29
2023/12/17 06:33:39;;;;;;;5.27;4.87;;;;;;;20.52;45.92;99687.63;5025124;28;20285;-30
2023/12/17 06:36:06;;;;;;;5.20;4.80;;;;;;;20.45;46.35;99685.47;5020340;28;20219;-29
2023/12/17 06:38:33;;;;;;;5.20;4.70;;;;;;;20.42;46.20;99687.81;5026359;28;20260;-29
2023/12/17 06:40:59;;;;;;;5.40;5.00;;;;;;;20.39;46.13;99687.59;5027965;28;20213;-29
2023/12/17 06:43:26;;;;;;;4.70;4.30;;;;;;;20.38;46.28;99684.94;5025857;28;20217;-29
2023/12/17 06:45:53;;;;;;;4.80;4.40;;;;;;;20.37;46.18;99689.16;5025784;28;20488;-30
2023/12/17 06:48:20;;;;;;;5.20;4.70;;;;;;;20.36;46.47;99691.59;5027883;28;20255;-29
2023/12/17 06:50:47;;;;;;;5.03;4.63;;;;;;;20.35;46.22;99689.84;5028141;28;20672;-29
2023/12/17 06:53:16;;;;;;;5.00;4.60;;;;;;;20.35;46.51;99700.06;5030935;28;20197;-27
2023/12/17 06:55:43;;;;;;;5.23;4.83;;;;;;;20.35;45.99;99694.94;5022840;28;20704;-27
2023/12/17 06:58:10;;;;;;;6.30;4.93;;;;;;;20.37;46.01;99690.84;5030631;28;20281;-29
2023/12/17 07:00:37;;;;;;;4.70;4.30;;;;;;;20.38;45.89;99696.06;5028847;28;20256;-29
2023/12/17 07:03:04;;;;;;;5.40;4.90;;;;;;;20.40;46.03;99689.38;5027420;28;20780;-29
2023/12/17 07:05:31;;;;;;;5.60;5.10;;;;;;;20.37;45.42;99694.25;5031336;28;20229;-27
2023/12/17 07:07:58;;;;;;;7.00;4.70;;;;;;;20.35;45.47;99706.06;5026367;28;20220;-29
2023/12/17 07:10:25;;;;;;;5.10;4.60;;;;;;;20.35;45.59;99700.97;5024114;28;20197;-30
2023/12/17 07:12:51;;;;;;;4.90;4.50;;;;;;;20.35;45.89;99705.16;5031755;28;20385;-30
2023/12/17 07:15:18;;;;;;;4.77;4.37;;;;;;;20.34;45.54;99706.81;5030986;28;20204;-28
2023/12/17 07:17:44;;;;;;;5.40;5.00;;;;;;;20.31;45.94;99701.50;5027121;28;20194;-29
2023/12/17 07:20:11;;;;;;;5.50;5.03;;;;;;;20.30;45.98;99702.28;5031005;28;20198;-30
2023/12/17 07:22:38;;;;;;;5.27;4.77;;;;;;;20.31;45.88;99704.06;5026138;28;20424;-30
2023/12/17 07:25:05;;;;;;;4.97;4.57;;;;;;;20.31;45.89;99705.75;5028572;28;20205;-29
2023/12/17 07:27:32;;;;;;;5.87;4.97;;;;;;;20.30;44.17;99709.97;5024146;28;20246;-29
2023/12/17 07:29:58;;;;;;;5.87;5.37;;;;;;;20.26;42.52;99704.53;5018560;28;20236;-29
2023/12/17 07:32:25;;;;;;;6.83;6.23;;;;;;;20.23;40.70;99700.13;5020822;28;20198;-32
2023/12/17 07:34:52;;;;;;;7.00;6.43;;;;;;;20.22;40.60;99700.00;5029400;28;20241;-29
2023/12/17 07:37:18;;;;;;;7.00;6.40;;;;;;;20.16;39.62;99694.50;5025493;28;20658;-28
2023/12/17 07:39:45;;;;;;;7.97;7.27;;;;;;;20.20;38.90;99694.81;5027168;28;20237;-28
2023/12/17 07:42:11;;;;;;;7.57;6.97;;;;;;;20.20;39.39;99705.00;5026902;28;20218;-31
2023/12/17 07:44:38;;;;;;;7.83;7.13;;;;;;;20.17;38.72;99699.69;5029338;28;20609;-28
2023/12/17 07:47:05;;;;;;;7.97;7.17;;;;;;;20.18;39.53;99695.47;5026383;28;20305;-28
2023/12/17 07:49:32;;;;;;;8.37;7.57;;;;;;;20.16;40.56;99691.94;5033377;28;20201;-28
2023/12/17 07:51:59;;;;;;;7.80;6.90;;;;;;;20.17;41.25;99702.25;5031147;28;20237;-29
2023/12/17 07:54:26;;;;;;;7.00;6.40;;;;;;;20.16;42.01;99704.69;5024315;28;20194;-32
2023/12/17 07:56:52;;;;;;;6.87;6.23;;;;;;;20.15;42.57;99710.56;5029683;28;20279;-30
2023/12/17 07:59:19;;;;;;;7.17;6.47;;;;;;;20.14;43.01;99707.16;5030503;28;20671;-28
2023/12/17 08:01:46;;;;;;;7.50;6.80;;;;;;;20.14;43.19;99703.69;5032852;28;20510;-28
2023/12/17 08:04:13;;;;;;;6.43;5.83;;;;;;;20.06;43.43;99699.69;5031753;28;20548;-29
2023/12/17 08:06:40;;;;;;;6.87;6.17;;;;;;;20.15;43.38;99721.69;5029618;28;20217;-30
2023/12/17 08:09:06;;;;;;;6.60;5.93;;;;;;;20.15;43.43;99713.13;5021991;28;20212;-29
2023/12/17 08:11:34;;;;;;;6.50;5.90;;;;;;;20.14;43.75;99709.69;5029366;28;20606;-28
2023/12/17 08:14:01;;;;;;;6.10;5.50;;;;;;;20.13;44.41;99707.91;5026682;28;20285;-28
2023/12/17 08:16:28;;;;;;;5.87;5.37;;;;;;;20.14;44.50;99713.91;5022878;28;20221;-28
2023/12/17 08:18:54;;;;;;;6.53;5.77;;;;;;;20.14;44.59;99703.69;5031088;28;20205;-28
2023/12/17 08:21:21;;;;;;;5.97;5.47;;;;;;;20.14;44.85;99704.59;5031777;28;20210;-28
2023/12/17 08:23:48;;;;;;;6.40;5.57;;;;;;;20.14;44.88;99704.59;5029056;28;20198;-29
2023/12/17 08:26:14;;;;;;;5.50;5.00;;;;;;;20.12;45.18;99706.09;5031477;28;20221;-29
2023/12/17 08:28:41;;;;;;;5.30;4.90;;;;;;;19.83;44.86;99663.25;5029884;28;20198;-29
2023/12/17 08:31:09;;;;;;;5.70;5.20;;;;;;;20.13;45.08;99713.00;5033120;28;20201;-29
2023/12/17 08:33:36;;;;;;;5.33;4.93;;;;;;;20.14;45.03;99709.69;5029774;28;20213;-29
2023/12/17 08:36:04;;;;;;;5.87;5.37;;;;;;;20.15;45.36;99714.00;5032182;28;20308;-30
2023/12/17 08:38:31;;;;;;;5.83;5.13;;;;;;;20.15;45.50;99713.13;5035353;28;20902;-29
2023/12/17 08:40:58;;;;;;;5.60;5.10;;;;;;;20.14;45.49;99712.25;5035003;28;20546;-30
2023/12/17 08:43:24;;;;;;;5.50;5.00;;;;;;;20.14;45.71;99709.69;5033466;28;20218;-29
2023/12/17 08:45:51;;;;;;;4.80;4.40;;;;;;;20.14;45.69;99719.00;5034862;28;20213;-29
2023/12/17 08:48:17;;;;;;;5.23;4.73;;;;;;;20.14;45.76;99726.66;5031831;28;20198;-29
2023/12/17 08:50:44;;;;;;;5.00;4.60;;;;;;;20.14;45.74;99726.66;5029247;28;20223;-29
2023/12/17 08:53:11;;;;;;;5.57;5.07;;;;;;;20.14;45.93;99727.56;5031006;28;20604;-30
2023/12/17 08:55:37;;;;;;;5.47;4.97;;;;;;;20.14;45.87;99722.47;5034339;28;20616;-28
2023/12/17 08:58:04;;;;;;;5.13;4.63;;;;;;;20.14;45.89;99719.00;5034639;28;20202;-27
2023/12/17 09:00:31;;;;;;;5.60;4.63;;;;;;;20.16;45.93;99722.56;5025906;28;20193;-33
2023/12/17 09:02:57;;;;;;;4.60;4.20;;;;;;;20.16;45.70;99725.13;5029865;28;20567;-29
2023/12/17 09:05:24;;;;;;;5.30;4.90;;;;;;;20.18;45.94;99721.88;5033171;28;20201;-28
2023/12/17 09:07:50;;;;;;;5.30;4.80;;;;;;;20.18;46.01;99728.66;5033537;28;20684;-28
2023/12/17 09:10:19;;;;;;;4.97;4.57;;;;;;;20.16;46.27;99732.78;5032670;28;20289;-29
2023/12/17 09:12:46;;;;;;;5.07;4.67;;;;;;;20.13;46.44;99727.47;5032699;28;20198;-28
2023/12/17 09:15:13;;;;;;;4.83;4.43;;;;;;;20.16;46.22;99735.34;5034745;28;20206;-28
2023/12/17 09:17:42;;;;;;;4.70;4.30;;;;;;;20.17;46.41;99732.00;5033410;28;20225;-30
2023/12/17 09:20:10;;;;;;;4.57;4.17;;;;;;;20.15;46.40;99724.22;5028586;28;20208;-28
2023/12/17 09:22:36;;;;;;;8.07;4.53;;;;;;;20.17;46.53;99726.88;5034475;28;20214;-29
2023/12/17 09:25:03;;;;;;;4.47;4.07;;;;;;;20.16;46.62;99714.91;5033883;28;20236;-28
2023/12/17 09:27:30;;;;;;;4.60;4.20;;;;;;;20.16;46.42;99723.44;5034175;28;20217;-28
2023/12/17 09:29:57;;;;;;;4.17;3.87;;;;;;;20.17;46.43;99717.56;5033549;28;20206;-30
2023/12/17 09:32:23;;;;;;;4.50;4.10;;;;;;;20.19;46.45;99721.09;5021466;28;20213;-28
2023/12/17 09:34:50;;;;;;;4.30;3.90;;;;;;;20.20;46.37;99717.78;5032959;28;20201;-28
2023/12/17 09:37:17;;;;;;;4.70;4.30;;;;;;;20.22;46.68;99717.88;5029218;28;20312;-28
2023/12/17 09:39:43;;;;;;;4.57;4.17;;;;;;;20.22;46.62;99721.31;5028898;28;20210;-30
2023/12/17 09:42:10;;;;;;;4.70;4.30;;;;;;;20.21;46.71;99722.09;5034377;28;20262;-29
2023/12/17 09:44:38;;;;;;;4.97;4.47;;;;;;;20.17;46.75;99717.56;5031984;28;20288;-28
2023/12/17 09:47:05;;;;;;;4.20;3.90;;;;;;;20.21;47.01;99727.19;5020501;28;20285;-29
2023/12/17 09:49:32;;;;;;;4.50;4.10;;;;;;;20.21;46.90;99722.09;5029337;28;20230;-28
2023/12/17 09:52:11;;;;;;;4.30;3.90;;;;;;;19.92;46.98;99671.56;5031852;28;20260;-33
2023/12/17 09:54:38;;;;;;;4.30;3.90;;;;;;;20.21;47.14;99717.00;5015322;28;20201;-28
2023/12/17 09:57:06;;;;;;;6.17;3.83;;;;;;;20.20;47.03;99720.34;5031814;28;20232;-29
2023/12/17 09:59:33;;;;;;;8.77;4.27;;;;;;;20.20;46.98;99724.53;5026166;28;20202;-28
2023/12/17 10:01:59;;;;;;;4.37;3.97;;;;;;;20.21;47.35;99717.00;5030381;28;20259;-29
2023/12/17 10:04:26;;;;;;;4.30;3.90;;;;;;;20.19;47.22;99713.44;5031852;28;20290;-29
2023/12/17 10:06:53;;;;;;;4.17;3.77;;;;;;;20.19;47.51;99712.56;5027678;28;20276;-28
2023/12/17 10:09:19;;;;;;;3.83;3.53;;;;;;;20.20;47.31;99712.69;5032683;28;20212;-30
2023/12/17 10:11:47;;;;;;;4.50;4.10;;;;;;;20.20;47.05;99710.13;5033097;28;20240;-32
2023/12/17 10:14:24;;;;;;;4.13;3.80;;;;;;;20.20;47.38;99715.22;5033087;28;20606;-29
2023/12/17 10:16:51;;;;;;;4.87;3.73;;;;;;;20.18;47.42;99711.66;5032871;28;20221;-29
2023/12/17 10:19:17;;;;;;;4.30;3.90;;;;;;;20.19;47.44;99702.34;5032547;28;20585;-29
2023/12/17 10:21:44;;;;;;;4.27;3.87;;;;;;;20.20;47.43;99706.66;5031599;28;20205;-28
2023/12/17 10:24:11;;;;;;;3.93;3.63;;;;;;;20.19;47.34;99708.31;5024850;28;20663;-28
2023/12/17 10:26:48;;;;;;;4.60;3.87;;;;;;;20.18;47.35;99692.91;5029269;28;20308;-27
2023/12/17 10:29:18;;;;;;;3.87;3.50;;;;;;;20.20;47.72;99692.25;5023929;28;20206;-29
2023/12/17 10:31:45;;;;;;;6.20;3.80;;;;;;;20.21;47.92;99690.56;5032841;28;20209;-28
2023/12/17 10:34:22;;;;;;;4.23;3.80;;;;;;;20.10;47.65;99668.50;5022011;28;20206;-28
2023/12/17 10:36:49;;;;;;;4.23;3.83;;;;;;;20.20;47.75;99688.78;5032802;28;20221;-29
2023/12/17 10:39:18;;;;;;;4.37;3.97;;;;;;;20.20;47.71;99691.34;5026868;28;20206;-28
2023/12/17 10:41:47;;;;;;;4.30;3.90;;;;;;;20.19;47.71;99682.78;5032073;28;20198;-29
2023/12/17 10:44:15;;;;;;;3.83;3.53;;;;;;;20.20;47.80;99678.59;5031846;28;20221;-28
2023/12/17 10:46:43;;;;;;;4.40;3.77;;;;;;;20.21;47.64;99667.56;5019595;28;20308;-29
2023/12/17 10:49:13;;;;;;;4.00;3.70;;;;;;;20.19;47.71;99659.81;5021388;28;20664;-28
2023/12/17 10:51:41;;;;;;;3.87;3.57;;;;;;;20.20;47.62;99650.50;5032203;28;20593;-29
2023/12/17 10:54:13;;;;;;;3.93;3.63;;;;;;;20.20;47.72;99650.50;5031439;28;20194;-29
2023/12/17 10:56:46;;;;;;;5.20;3.83;;;;;;;20.19;47.74;99639.38;5032292;28;20228;-32
2023/12/17 10:59:18;;;;;;;3.70;3.40;;;;;;;20.20;47.70;99646.28;5015061;28;20575;-28
2023/12/17 11:02:00;;;;;;;3.63;3.33;;;;;;;20.21;47.71;99654.81;5017020;28;20244;-30
2023/12/17 11:04:27;;;;;;;4.70;3.87;;;;;;;20.18;47.78;99655.50;5031975;28;20225;-28
2023/12/17 11:06:54;;;;;;;4.00;3.70;;;;;;;20.20;47.75;99659.06;5013257;28;20652;-29
2023/12/17 11:09:20;;;;;;;4.60;3.67;;;;;;;20.21;47.62;99660.81;5030611;28;20217;-28
2023/12/17 11:11:47;;;;;;;3.83;3.27;;;;;;;20.10;47.92;99631.06;5021574;28;20198;-28
2023/12/17 11:14:14;;;;;;;4.00;3.70;;;;;;;20.22;47.50;99643.84;5031841;28;20248;-32
2023/12/17 11:16:40;;;;;;;3.97;3.57;;;;;;;20.20;47.58;99645.41;5013933;28;20225;-34
2023/12/17 11:19:08;;;;;;;3.90;3.57;;;;;;;20.22;47.61;99643.84;5014666;28;20267;-29
2023/12/17 11:21:35;;;;;;;4.10;3.70;;;;;;;20.17;47.71;99628.22;5031104;28;20248;-29
2023/12/17 11:24:01;;;;;;;3.90;3.60;;;;;;;20.23;47.77;99635.38;5025623;28;20248;-28
2023/12/17 11:26:28;;;;;;;4.47;3.40;;;;;;;20.23;47.68;99628.63;5030798;28;20228;-28
2023/12/17 11:28:55;;;;;;;3.83;3.53;;;;;;;20.23;47.71;99630.28;5014483;28;20234;-30
2023/12/17 11:31:21;;;;;;;5.23;3.53;;;;;;;20.23;47.96;99627.72;5031533;28;20209;-29
2023/12/17 11:33:48;;;;;;;4.80;3.53;;;;;;;20.23;47.72;99620.06;5026589;28;20241;-28